createdAt,value
2018-05-31T00:00:36.870Z,22.11
2018-05-31T00:01:42.656Z,22.12
2018-05-31T00:02:49.205Z,22.12
2018-05-31T00:03:55.778Z,22.12
2018-05-31T00:05:02.340Z,22.10
2018-05-31T00:06:09.096Z,22.09
2018-05-31T00:07:15.851Z,22.06
2018-05-31T00:08:21.623Z,22.05
2018-05-31T00:09:27.501Z,22.05
2018-05-31T00:10:33.524Z,22.03
2018-05-31T00:11:40.258Z,22.01
2018-05-31T00:12:46.219Z,22.00
2018-05-31T00:13:52.754Z,21.98
2018-05-31T00:14:58.523Z,21.96
2018-05-31T00:16:05.084Z,21.93
2018-05-31T00:17:11.623Z,21.89
2018-05-31T00:18:18.159Z,21.87
2018-05-31T00:19:23.936Z,21.85
2018-05-31T00:20:30.142Z,21.84
2018-05-31T00:21:35.946Z,21.83
2018-05-31T00:22:41.736Z,21.78
2018-05-31T00:23:47.520Z,21.77
2018-05-31T00:24:54.070Z,21.75
2018-05-31T00:26:00.046Z,21.74
2018-05-31T00:27:05.841Z,21.73
2018-05-31T00:28:11.818Z,21.72
2018-05-31T00:29:17.626Z,21.69
2018-05-31T00:30:24.168Z,21.65
2018-05-31T00:31:29.955Z,21.63
2018-05-31T00:32:35.762Z,21.57
2018-05-31T00:33:41.538Z,21.55
2018-05-31T00:34:48.085Z,21.53
2018-05-31T00:35:54.339Z,21.52
2018-05-31T00:37:00.106Z,21.51
2018-05-31T00:38:06.111Z,21.50
2018-05-31T00:39:12.091Z,21.48
2018-05-31T00:40:18.843Z,21.44
2018-05-31T00:41:24.839Z,21.41
2018-05-31T00:42:30.817Z,21.41
2018-05-31T00:43:38.127Z,21.40
2018-05-31T00:44:44.893Z,21.33
2018-05-31T00:45:51.436Z,21.30
2018-05-31T00:46:57.213Z,21.28
2018-05-31T00:48:03.193Z,21.28
2018-05-31T00:49:08.987Z,21.27
2018-05-31T00:50:15.985Z,21.26
2018-05-31T00:51:21.764Z,21.24
2018-05-31T00:52:27.744Z,21.23
2018-05-31T00:53:34.294Z,21.22
2018-05-31T00:54:41.899Z,21.21
2018-05-31T00:56:04.802Z,21.20
2018-05-31T00:57:10.780Z,21.15
2018-05-31T00:58:17.523Z,21.10
2018-05-31T00:59:23.499Z,21.07
2018-05-31T01:00:29.494Z,21.07
2018-05-31T01:01:35.474Z,21.03
2018-05-31T01:02:42.215Z,21.03
2018-05-31T01:03:48.006Z,21.01
2018-05-31T01:04:54.008Z,21.03
2018-05-31T01:05:59.807Z,21.04
2018-05-31T01:07:05.135Z,21.04
2018-05-31T01:08:10.917Z,21.04
2018-05-31T01:09:16.691Z,21.04
2018-05-31T01:10:23.436Z,21.01
2018-05-31T01:11:29.533Z,20.93
2018-05-31T01:12:35.308Z,20.91
2018-05-31T01:13:41.125Z,20.84
2018-05-31T01:14:47.104Z,20.84
2018-05-31T01:15:53.679Z,20.85
2018-05-31T01:16:59.699Z,20.86
2018-05-31T01:18:05.517Z,20.87
2018-05-31T01:19:11.287Z,20.85
2018-05-31T01:20:17.067Z,20.89
2018-05-31T01:21:23.730Z,20.88
2018-05-31T01:22:29.519Z,20.89
2018-05-31T01:23:35.295Z,20.86
2018-05-31T01:24:41.067Z,20.85
2018-05-31T01:25:47.616Z,20.85
2018-05-31T01:26:54.155Z,20.85
2018-05-31T01:28:00.163Z,20.80
2018-05-31T01:29:05.943Z,20.76
2018-05-31T01:30:11.943Z,20.70
2018-05-31T01:31:17.926Z,20.70
2018-05-31T01:32:23.911Z,20.71
2018-05-31T01:33:30.487Z,20.67
2018-05-31T01:34:36.472Z,20.69
2018-05-31T01:35:42.455Z,20.65
2018-05-31T01:36:48.239Z,20.67
2018-05-31T01:37:53.319Z,20.62
2018-05-31T01:38:59.323Z,20.64
2018-05-31T01:40:04.767Z,20.62
2018-05-31T01:41:10.559Z,20.60
2018-05-31T01:42:16.358Z,20.61
2018-05-31T01:43:22.426Z,20.62
2018-05-31T01:44:28.219Z,20.65
2018-05-31T01:45:33.990Z,20.68
2018-05-31T01:46:39.983Z,20.71
2018-05-31T01:47:45.947Z,20.72
2018-05-31T01:48:51.711Z,20.74
2018-05-31T01:49:57.495Z,20.75
2018-05-31T01:51:03.477Z,20.75
2018-05-31T01:52:09.492Z,20.75
2018-05-31T01:53:16.243Z,20.75
2018-05-31T01:54:22.235Z,20.70
2018-05-31T01:55:28.241Z,20.70
2018-05-31T01:56:34.026Z,20.69
2018-05-31T01:57:39.807Z,20.68
2018-05-31T01:58:45.575Z,20.68
2018-05-31T01:59:51.354Z,20.69
2018-05-31T02:00:57.147Z,20.65
2018-05-31T02:02:02.926Z,20.67
2018-05-31T02:03:09.497Z,20.66
2018-05-31T02:04:16.035Z,20.62
2018-05-31T02:05:22.541Z,20.59
2018-05-31T02:06:28.545Z,20.62
2018-05-31T02:07:35.294Z,20.63
2018-05-31T02:08:41.085Z,20.65
2018-05-31T02:09:46.868Z,20.62
2018-05-31T02:10:52.847Z,20.61
2018-05-31T02:11:59.611Z,20.59
2018-05-31T02:13:05.802Z,20.58
2018-05-31T02:14:11.783Z,20.59
2018-05-31T02:15:18.289Z,20.56
2018-05-31T02:16:24.061Z,20.58
2018-05-31T02:17:29.865Z,20.57
2018-05-31T02:18:35.990Z,20.56
2018-05-31T02:19:42.735Z,20.53
2018-05-31T02:20:49.495Z,20.52
2018-05-31T02:21:55.484Z,20.54
2018-05-31T02:23:01.651Z,20.55
2018-05-31T02:24:07.304Z,20.56
2018-05-31T02:25:13.393Z,20.57
2018-05-31T02:26:19.380Z,20.53
2018-05-31T02:27:25.160Z,20.53
2018-05-31T02:28:30.963Z,20.50
2018-05-31T02:29:36.947Z,20.48
2018-05-31T02:30:42.719Z,20.46
2018-05-31T02:31:48.706Z,20.47
2018-05-31T02:32:54.473Z,20.45
2018-05-31T02:34:00.292Z,20.43
2018-05-31T02:35:05.934Z,20.38
2018-05-31T02:36:11.713Z,20.39
2018-05-31T02:37:17.700Z,20.41
2018-05-31T02:38:24.232Z,20.41
2018-05-31T02:39:30.790Z,20.35
2018-05-31T02:40:36.566Z,20.29
2018-05-31T02:41:43.109Z,20.28
2018-05-31T02:42:49.859Z,20.28
2018-05-31T02:43:55.860Z,20.29
2018-05-31T02:45:01.652Z,20.29
2018-05-31T02:46:07.624Z,20.32
2018-05-31T02:47:13.617Z,20.34
2018-05-31T02:48:19.254Z,20.37
2018-05-31T02:49:25.332Z,20.38
2018-05-31T02:50:31.331Z,20.40
2018-05-31T02:51:37.323Z,20.39
2018-05-31T02:52:43.119Z,20.40
2018-05-31T02:53:48.906Z,20.41
2018-05-31T02:54:54.684Z,20.41
2018-05-31T02:56:00.748Z,20.43
2018-05-31T02:57:06.537Z,20.44
2018-05-31T02:58:13.079Z,20.44
2018-05-31T02:59:19.056Z,20.44
2018-05-31T03:00:24.835Z,20.44
2018-05-31T03:01:30.610Z,20.45
2018-05-31T03:02:36.608Z,20.46
2018-05-31T03:03:43.156Z,20.42
2018-05-31T03:04:49.706Z,20.42
2018-05-31T03:05:55.679Z,20.43
2018-05-31T03:07:02.319Z,20.43
2018-05-31T03:08:09.060Z,20.42
2018-05-31T03:09:15.075Z,20.40
2018-05-31T03:10:20.850Z,20.40
2018-05-31T03:11:26.626Z,20.42
2018-05-31T03:12:33.427Z,20.44
2018-05-31T03:13:39.190Z,20.44
2018-05-31T03:14:45.165Z,20.46
2018-05-31T03:15:51.150Z,20.47
2018-05-31T03:16:57.118Z,20.48
2018-05-31T03:18:03.119Z,20.49
2018-05-31T03:19:09.695Z,20.50
2018-05-31T03:20:16.539Z,20.51
2018-05-31T03:21:22.360Z,20.51
2018-05-31T03:22:28.131Z,20.49
2018-05-31T03:23:34.700Z,20.49
2018-05-31T03:24:41.100Z,20.48
2018-05-31T03:25:46.938Z,20.45
2018-05-31T03:26:52.777Z,20.44
2018-05-31T03:27:58.722Z,20.44
2018-05-31T03:29:04.579Z,20.45
2018-05-31T03:30:10.404Z,20.44
2018-05-31T03:31:16.183Z,20.43
2018-05-31T03:32:21.955Z,20.44
2018-05-31T03:33:28.492Z,20.42
2018-05-31T03:34:34.300Z,20.41
2018-05-31T03:35:40.075Z,20.43
2018-05-31T03:36:45.860Z,20.44
2018-05-31T03:37:52.939Z,20.45
2018-05-31T03:38:58.914Z,20.47
2018-05-31T03:40:04.018Z,20.51
2018-05-31T03:41:09.998Z,20.54
2018-05-31T03:42:16.003Z,20.58
2018-05-31T03:43:21.786Z,20.60
2018-05-31T03:44:27.759Z,20.63
2018-05-31T03:45:33.551Z,20.66
2018-05-31T03:46:39.328Z,20.68
2018-05-31T03:47:45.108Z,20.69
2018-05-31T03:48:51.097Z,20.70
2018-05-31T03:49:56.872Z,20.73
2018-05-31T03:51:03.439Z,20.74
2018-05-31T03:52:09.211Z,20.77
2018-05-31T03:53:15.000Z,20.79
2018-05-31T03:54:20.959Z,20.82
2018-05-31T03:55:26.744Z,20.86
2018-05-31T03:56:32.536Z,20.91
2018-05-31T03:57:38.533Z,20.96
2018-05-31T03:58:44.515Z,21.01
2018-05-31T03:59:50.282Z,21.07
2018-05-31T04:00:56.059Z,21.12
2018-05-31T04:02:01.852Z,21.17
2018-05-31T04:03:07.830Z,21.21
2018-05-31T04:04:14.367Z,21.26
2018-05-31T04:05:20.150Z,21.31
2018-05-31T04:06:26.141Z,21.35
2018-05-31T04:07:31.949Z,21.39
2018-05-31T04:08:37.935Z,21.44
2018-05-31T04:09:43.739Z,21.50
2018-05-31T04:10:49.526Z,21.54
2018-05-31T04:11:55.838Z,21.58
2018-05-31T04:13:02.059Z,21.62
2018-05-31T04:14:08.998Z,21.64
2018-05-31T04:15:15.022Z,21.67
2018-05-31T04:16:22.192Z,21.72
2018-05-31T04:17:28.430Z,21.67
2018-05-31T04:18:34.485Z,21.63
2018-05-31T04:19:41.144Z,21.58
2018-05-31T04:20:46.980Z,21.58
2018-05-31T04:21:52.800Z,21.51
2018-05-31T04:22:59.381Z,21.57
2018-05-31T04:24:06.803Z,21.64
2018-05-31T04:25:12.624Z,21.70
2018-05-31T04:26:18.717Z,21.75
2018-05-31T04:27:24.563Z,21.83
2018-05-31T04:28:30.389Z,21.90
2018-05-31T04:29:36.460Z,21.92
2018-05-31T04:30:43.321Z,22.02
2018-05-31T04:31:50.140Z,22.06
2018-05-31T04:32:56.171Z,22.12
2018-05-31T04:34:02.233Z,22.14
2018-05-31T04:35:08.396Z,22.15
2018-05-31T04:36:14.241Z,22.12
2018-05-31T04:37:20.042Z,22.14
2018-05-31T04:38:26.816Z,22.14
2018-05-31T04:39:32.593Z,22.13
2018-05-31T04:40:38.595Z,22.12
2018-05-31T04:41:45.131Z,22.11
2018-05-31T04:42:52.420Z,22.16
2018-05-31T04:43:59.015Z,22.14
2018-05-31T04:45:04.681Z,22.14
2018-05-31T04:46:10.574Z,22.14
2018-05-31T04:47:17.328Z,22.07
2018-05-31T04:48:23.883Z,22.10
2018-05-31T04:49:29.876Z,22.16
2018-05-31T04:50:35.652Z,22.19
2018-05-31T04:51:41.470Z,22.24
2018-05-31T04:52:47.456Z,22.28
2018-05-31T04:53:57.863Z,22.29
2018-05-31T04:55:04.112Z,22.26
2018-05-31T04:56:09.967Z,22.26
2018-05-31T04:57:15.950Z,22.26
2018-05-31T04:58:21.905Z,22.28
2018-05-31T04:59:28.552Z,22.28
2018-05-31T05:00:35.116Z,22.26
2018-05-31T05:01:40.896Z,22.24
2018-05-31T05:02:46.709Z,22.21
2018-05-31T05:03:53.250Z,22.20
2018-05-31T05:04:59.036Z,22.18
2018-05-31T05:06:04.818Z,22.07
2018-05-31T05:07:10.596Z,21.99
2018-05-31T05:08:17.168Z,21.98
2018-05-31T05:09:23.731Z,22.03
2018-05-31T05:10:30.276Z,22.04
2018-05-31T05:11:36.064Z,22.01
2018-05-31T05:12:41.905Z,22.05
2018-05-31T05:13:47.711Z,22.13
2018-05-31T05:14:54.264Z,22.20
2018-05-31T05:16:00.275Z,22.23
2018-05-31T05:17:06.058Z,22.25
2018-05-31T05:18:12.608Z,22.26
2018-05-31T05:19:19.491Z,22.25
2018-05-31T05:20:26.031Z,22.18
2018-05-31T05:21:31.823Z,22.20
2018-05-31T05:22:37.638Z,22.25
2018-05-31T05:23:44.384Z,22.25
2018-05-31T05:24:50.239Z,22.28
2018-05-31T05:25:56.797Z,22.28
2018-05-31T05:27:02.787Z,22.30
2018-05-31T05:28:08.575Z,22.37
2018-05-31T05:29:14.570Z,22.32
2018-05-31T05:30:20.588Z,22.41
2018-05-31T05:31:27.391Z,22.43
2018-05-31T05:32:33.412Z,22.44
2018-05-31T05:33:40.138Z,22.49
2018-05-31T05:34:46.002Z,22.51
2018-05-31T05:35:52.025Z,22.57
2018-05-31T05:36:57.835Z,22.62
2018-05-31T05:38:03.822Z,22.67
2018-05-31T05:39:09.788Z,22.78
2018-05-31T05:40:15.571Z,22.79
2018-05-31T05:41:21.572Z,22.84
2018-05-31T05:42:27.546Z,22.93
2018-05-31T05:43:34.091Z,23.00
2018-05-31T05:44:40.071Z,23.07
2018-05-31T05:45:45.916Z,23.11
2018-05-31T05:46:51.733Z,23.07
2018-05-31T05:47:58.495Z,23.10
2018-05-31T05:49:05.038Z,23.14
2018-05-31T05:50:11.671Z,23.10
2018-05-31T05:51:18.368Z,23.16
2018-05-31T05:52:25.151Z,23.17
2018-05-31T05:53:31.700Z,23.24
2018-05-31T05:54:38.444Z,23.20
2018-05-31T05:55:46.092Z,23.31
2018-05-31T05:56:52.110Z,23.46
2018-05-31T05:57:57.925Z,23.76
2018-05-31T05:59:03.703Z,24.14
2018-05-31T06:00:09.481Z,24.60
2018-05-31T06:01:15.457Z,25.14
2018-05-31T06:02:21.444Z,25.67
2018-05-31T06:03:27.243Z,26.07
2018-05-31T06:04:33.231Z,26.52
2018-05-31T06:05:39.010Z,26.97
2018-05-31T06:06:45.036Z,27.40
2018-05-31T06:07:50.809Z,27.85
2018-05-31T06:08:56.615Z,28.27
2018-05-31T06:10:02.398Z,28.68
2018-05-31T06:11:08.611Z,29.01
2018-05-31T06:12:14.595Z,29.33
2018-05-31T06:13:20.407Z,29.67
2018-05-31T06:14:26.418Z,29.97
2018-05-31T06:15:33.219Z,30.25
2018-05-31T06:16:39.142Z,30.46
2018-05-31T06:17:45.116Z,30.79
2018-05-31T06:18:51.098Z,31.00
2018-05-31T06:19:57.103Z,31.21
2018-05-31T06:21:03.103Z,31.49
2018-05-31T06:22:09.115Z,31.71
2018-05-31T06:23:15.145Z,31.89
2018-05-31T06:24:20.935Z,32.05
2018-05-31T06:25:26.940Z,32.14
2018-05-31T06:26:32.746Z,32.26
2018-05-31T06:27:38.696Z,32.37
2018-05-31T06:28:45.287Z,32.64
2018-05-31T06:29:51.082Z,32.80
2018-05-31T06:30:56.888Z,33.08
2018-05-31T06:32:02.862Z,33.27
2018-05-31T06:33:08.864Z,33.42
2018-05-31T06:34:14.852Z,33.57
2018-05-31T06:35:20.620Z,33.70
2018-05-31T06:36:27.033Z,33.82
2018-05-31T06:37:32.587Z,34.01
2018-05-31T06:38:38.363Z,34.16
2018-05-31T06:39:44.895Z,34.22
2018-05-31T06:40:50.669Z,34.27
2018-05-31T06:41:56.455Z,34.39
2018-05-31T06:43:02.219Z,34.56
2018-05-31T06:44:07.994Z,34.56
2018-05-31T06:45:14.522Z,34.64
2018-05-31T06:46:21.799Z,34.80
2018-05-31T06:47:27.590Z,34.74
2018-05-31T06:48:33.362Z,34.68
2018-05-31T06:49:39.132Z,34.97
2018-05-31T06:50:45.126Z,35.13
2018-05-31T06:51:50.883Z,35.30
2018-05-31T06:52:56.709Z,35.48
2018-05-31T06:54:02.498Z,35.54
2018-05-31T06:55:08.599Z,35.72
2018-05-31T06:56:14.384Z,36.07
2018-05-31T06:57:20.150Z,36.30
2018-05-31T06:58:25.954Z,36.36
2018-05-31T06:59:31.726Z,36.28
2018-05-31T07:00:37.504Z,36.26
2018-05-31T07:01:43.563Z,36.51
2018-05-31T07:02:49.543Z,36.71
2018-05-31T07:03:55.326Z,36.88
2018-05-31T07:05:01.876Z,37.13
2018-05-31T07:06:07.643Z,37.25
2018-05-31T07:07:13.429Z,37.41
2018-05-31T07:08:19.201Z,37.54
2018-05-31T07:09:24.995Z,37.62
2018-05-31T07:10:30.761Z,37.60
2018-05-31T07:11:36.528Z,37.83
2018-05-31T07:12:43.838Z,38.01
2018-05-31T07:13:49.608Z,38.09
2018-05-31T07:14:55.395Z,38.03
2018-05-31T07:16:01.934Z,37.94
2018-05-31T07:17:07.703Z,38.03
2018-05-31T07:18:14.245Z,37.85
2018-05-31T07:19:19.752Z,37.93
2018-05-31T07:20:26.278Z,38.25
2018-05-31T07:21:31.779Z,38.44
2018-05-31T07:22:37.557Z,38.55
2018-05-31T07:23:43.066Z,38.53
2018-05-31T07:24:48.565Z,38.68
2018-05-31T07:25:54.869Z,38.63
2018-05-31T07:27:00.406Z,38.92
2018-05-31T07:28:05.686Z,39.05
2018-05-31T07:29:11.946Z,39.40
2018-05-31T07:30:18.209Z,39.38
2018-05-31T07:31:23.763Z,39.23
2018-05-31T07:32:29.264Z,39.60
2018-05-31T07:33:35.526Z,39.75
2018-05-31T07:34:41.792Z,39.81
2018-05-31T07:35:47.291Z,40.05
2018-05-31T07:36:52.814Z,40.07
2018-05-31T07:37:58.341Z,39.96
2018-05-31T07:39:03.378Z,39.89
2018-05-31T07:40:08.894Z,39.91
2018-05-31T07:41:14.404Z,40.10
2018-05-31T07:42:19.936Z,40.03
2018-05-31T07:43:24.875Z,39.86
2018-05-31T07:44:30.371Z,39.95
2018-05-31T07:45:36.641Z,39.63
2018-05-31T07:46:42.136Z,39.47
2018-05-31T07:47:47.663Z,39.58
2018-05-31T07:48:52.991Z,39.50
2018-05-31T07:49:58.491Z,39.54
2018-05-31T07:51:03.982Z,39.83
2018-05-31T07:52:10.251Z,39.90
2018-05-31T07:53:16.547Z,39.81
2018-05-31T07:54:22.052Z,40.11
2018-05-31T07:55:27.554Z,40.36
2018-05-31T07:56:33.061Z,40.61
2018-05-31T07:57:38.569Z,40.99
2018-05-31T07:58:44.091Z,41.28
2018-05-31T07:59:50.379Z,41.31
2018-05-31T08:00:55.875Z,41.03
2018-05-31T08:02:02.193Z,41.06
2018-05-31T08:03:07.698Z,41.08
2018-05-31T08:04:12.924Z,40.84
2018-05-31T08:05:19.359Z,40.82
2018-05-31T08:06:25.643Z,40.87
2018-05-31T08:07:31.143Z,41.18
2018-05-31T08:08:36.651Z,41.34
2018-05-31T08:09:42.179Z,41.13
2018-05-31T08:10:47.682Z,41.29
2018-05-31T08:11:53.209Z,41.08
2018-05-31T08:12:58.699Z,40.79
2018-05-31T08:14:03.882Z,40.99
2018-05-31T08:15:09.486Z,41.38
2018-05-31T08:16:15.457Z,41.37
2018-05-31T08:17:20.971Z,41.72
2018-05-31T08:18:27.255Z,41.80
2018-05-31T08:19:32.768Z,41.90
2018-05-31T08:20:39.110Z,42.08
2018-05-31T08:21:44.791Z,41.97
2018-05-31T08:22:50.297Z,42.37
2018-05-31T08:23:56.568Z,42.27
2018-05-31T08:25:02.088Z,42.40
2018-05-31T08:26:07.599Z,42.83
2018-05-31T08:27:14.618Z,43.24
2018-05-31T08:28:20.132Z,43.05
2018-05-31T08:29:26.403Z,43.21
2018-05-31T08:30:31.903Z,43.34
2018-05-31T08:31:37.474Z,43.25
2018-05-31T08:32:43.911Z,43.66
2018-05-31T08:33:50.170Z,43.79
2018-05-31T08:34:55.677Z,43.75
2018-05-31T08:36:01.394Z,43.77
2018-05-31T08:37:06.919Z,43.80
2018-05-31T08:38:12.416Z,43.76
2018-05-31T08:39:18.934Z,43.41
2018-05-31T08:40:24.848Z,43.82
2018-05-31T08:41:30.340Z,43.70
2018-05-31T08:42:36.262Z,43.45
2018-05-31T08:43:41.761Z,43.33
2018-05-31T08:44:47.259Z,43.26
2018-05-31T08:45:53.547Z,43.34
2018-05-31T08:46:59.051Z,43.42
2018-05-31T08:48:05.400Z,43.32
2018-05-31T08:49:10.916Z,42.98
2018-05-31T08:50:16.423Z,42.74
2018-05-31T08:51:21.981Z,42.26
2018-05-31T08:52:27.512Z,42.08
2018-05-31T08:53:33.044Z,41.86
2018-05-31T08:54:39.008Z,41.55
2018-05-31T08:55:44.538Z,41.62
2018-05-31T08:56:50.051Z,41.40
2018-05-31T08:57:55.564Z,41.32
2018-05-31T08:59:01.092Z,41.77
2018-05-31T09:00:06.023Z,41.74
2018-05-31T09:01:11.686Z,41.87
2018-05-31T09:02:17.186Z,42.05
2018-05-31T09:03:22.707Z,42.19
2018-05-31T09:04:28.231Z,42.27
2018-05-31T09:05:33.731Z,42.37
2018-05-31T09:06:39.359Z,42.57
2018-05-31T09:07:44.906Z,42.74
2018-05-31T09:08:50.432Z,43.21
2018-05-31T09:09:55.966Z,43.28
2018-05-31T09:11:01.580Z,42.86
2018-05-31T09:12:07.868Z,42.93
2018-05-31T09:13:13.379Z,42.85
2018-05-31T09:14:18.903Z,43.18
2018-05-31T09:15:25.188Z,43.15
2018-05-31T09:16:30.688Z,43.36
2018-05-31T09:17:36.947Z,43.41
2018-05-31T09:18:43.211Z,42.81
2018-05-31T09:19:48.727Z,42.16
2018-05-31T09:20:55.011Z,42.10
2018-05-31T09:22:00.515Z,42.04
2018-05-31T09:23:06.780Z,41.70
2018-05-31T09:24:12.304Z,41.60
2018-05-31T09:25:18.574Z,41.34
2018-05-31T09:26:24.105Z,41.51
2018-05-31T09:27:30.376Z,42.04
2018-05-31T09:28:35.885Z,42.06
2018-05-31T09:29:42.360Z,42.15
2018-05-31T09:30:47.873Z,42.18
2018-05-31T09:31:54.171Z,42.59
2018-05-31T09:32:59.670Z,42.51
2018-05-31T09:34:05.943Z,42.69
2018-05-31T09:35:11.440Z,42.30
2018-05-31T09:36:17.055Z,42.42
2018-05-31T09:37:22.588Z,42.80
2018-05-31T09:38:28.095Z,42.83
2018-05-31T09:39:32.701Z,42.66
2018-05-31T09:40:38.210Z,42.33
2018-05-31T09:41:43.723Z,42.33
2018-05-31T09:42:49.236Z,41.96
2018-05-31T09:43:54.743Z,41.91
2018-05-31T09:45:00.246Z,41.77
2018-05-31T09:46:06.522Z,41.65
2018-05-31T09:47:12.985Z,41.69
2018-05-31T09:48:18.508Z,41.84
2018-05-31T09:49:24.787Z,41.83
2018-05-31T09:50:30.318Z,42.30
2018-05-31T09:51:35.815Z,42.69
2018-05-31T09:52:41.386Z,42.54
2018-05-31T09:53:46.900Z,42.79
2018-05-31T09:54:53.162Z,42.47
2018-05-31T09:55:59.435Z,42.44
2018-05-31T09:57:04.959Z,42.59
2018-05-31T09:58:10.586Z,42.78
2018-05-31T09:59:16.290Z,42.99
2018-05-31T10:00:21.571Z,42.84
2018-05-31T10:01:27.112Z,42.85
2018-05-31T10:02:32.611Z,42.72
2018-05-31T10:03:38.126Z,42.34
2018-05-31T10:04:43.646Z,42.46
2018-05-31T10:05:49.151Z,42.38
2018-05-31T10:06:54.656Z,42.37
2018-05-31T10:08:00.996Z,42.50
2018-05-31T10:09:06.966Z,42.54
2018-05-31T10:10:12.496Z,42.16
2018-05-31T10:11:18.001Z,42.22
2018-05-31T10:12:23.503Z,42.22
2018-05-31T10:13:29.002Z,42.34
2018-05-31T10:14:34.511Z,42.02
2018-05-31T10:15:40.052Z,41.51
2018-05-31T10:16:45.215Z,41.38
2018-05-31T10:17:51.491Z,41.59
2018-05-31T10:18:57.020Z,41.40
2018-05-31T10:20:03.290Z,41.23
2018-05-31T10:21:08.816Z,41.17
2018-05-31T10:22:14.381Z,40.91
2018-05-31T10:23:19.872Z,41.07
2018-05-31T10:24:26.151Z,41.26
2018-05-31T10:25:31.662Z,41.21
2018-05-31T10:26:38.004Z,41.07
2018-05-31T10:27:43.506Z,40.95
2018-05-31T10:28:49.015Z,40.83
2018-05-31T10:29:54.524Z,40.28
2018-05-31T10:31:00.791Z,39.90
2018-05-31T10:32:07.065Z,39.34
2018-05-31T10:33:12.565Z,39.06
2018-05-31T10:34:18.827Z,38.87
2018-05-31T10:35:25.107Z,38.54
2018-05-31T10:37:43.739Z,38.24
2018-05-31T10:38:49.253Z,37.56
2018-05-31T10:39:54.759Z,37.27
2018-05-31T10:41:00.267Z,36.84
2018-05-31T10:42:05.537Z,36.54
2018-05-31T10:43:11.338Z,36.48
2018-05-31T10:44:16.855Z,36.36
2018-05-31T10:45:22.616Z,36.27
2018-05-31T10:46:29.191Z,36.31
2018-05-31T10:47:35.940Z,36.20
2018-05-31T10:48:42.502Z,36.10
2018-05-31T10:49:49.044Z,35.90
2018-05-31T10:50:54.822Z,35.91
2018-05-31T10:52:00.603Z,35.80
2018-05-31T10:53:06.720Z,35.33
2018-05-31T10:54:12.509Z,35.21
2018-05-31T10:55:18.291Z,35.02
2018-05-31T10:56:24.070Z,35.04
2018-05-31T10:57:29.836Z,35.08
2018-05-31T10:58:35.615Z,35.04
2018-05-31T10:59:41.471Z,35.09
2018-05-31T11:00:47.270Z,35.04
2018-05-31T11:01:53.043Z,34.85
2018-05-31T11:02:58.900Z,34.91
2018-05-31T11:04:04.668Z,34.86
2018-05-31T11:05:10.464Z,34.89
2018-05-31T11:06:16.999Z,34.91
2018-05-31T11:07:22.772Z,34.98
2018-05-31T11:08:29.303Z,35.06
2018-05-31T11:09:36.610Z,35.06
2018-05-31T11:10:43.471Z,35.00
2018-05-31T11:11:50.003Z,34.89
2018-05-31T11:12:55.785Z,34.73
2018-05-31T11:14:01.563Z,34.55
2018-05-31T11:15:07.336Z,34.29
2018-05-31T11:16:13.124Z,34.30
2018-05-31T11:17:18.895Z,34.26
2018-05-31T11:18:24.667Z,34.36
2018-05-31T11:19:30.124Z,34.27
2018-05-31T11:20:36.652Z,34.25
2018-05-31T11:21:42.488Z,34.18
2018-05-31T11:22:48.579Z,34.01
2018-05-31T11:23:55.110Z,33.90
2018-05-31T11:25:01.092Z,33.91
2018-05-31T11:26:06.870Z,33.80
2018-05-31T11:27:12.660Z,33.78
2018-05-31T11:28:18.873Z,33.84
2018-05-31T11:29:24.735Z,33.75
2018-05-31T11:30:30.508Z,33.60
2018-05-31T11:31:36.296Z,33.49
2018-05-31T11:32:42.123Z,33.47
2018-05-31T11:33:47.896Z,33.66
2018-05-31T11:34:53.698Z,33.79
2018-05-31T11:35:59.476Z,33.76
2018-05-31T11:37:05.260Z,33.62
2018-05-31T11:38:11.807Z,33.66
2018-05-31T11:39:18.374Z,33.71
2018-05-31T11:40:24.152Z,33.73
2018-05-31T11:41:30.585Z,33.83
2018-05-31T11:42:36.361Z,33.94
2018-05-31T11:43:42.163Z,34.02
2018-05-31T11:44:48.690Z,34.05
2018-05-31T11:45:54.467Z,34.18
2018-05-31T11:47:01.016Z,34.18
2018-05-31T11:48:07.562Z,34.28
2018-05-31T11:49:14.132Z,34.29
2018-05-31T11:50:19.921Z,34.24
2018-05-31T11:51:25.688Z,34.21
2018-05-31T11:52:31.461Z,34.13
2018-05-31T11:53:38.019Z,34.13
2018-05-31T11:54:44.617Z,34.07
2018-05-31T11:55:50.383Z,34.14
2018-05-31T11:56:56.146Z,34.20
2018-05-31T11:58:01.921Z,34.24
2018-05-31T11:59:08.463Z,34.28
2018-05-31T12:00:15.228Z,34.15
2018-05-31T12:01:21.766Z,34.18
2018-05-31T12:02:27.539Z,34.16
2018-05-31T12:03:33.302Z,34.14
2018-05-31T12:04:39.090Z,34.23
2018-05-31T12:05:44.896Z,34.27
2018-05-31T12:06:50.671Z,34.18
2018-05-31T12:07:56.461Z,33.84
2018-05-31T12:09:02.248Z,33.60
2018-05-31T12:10:08.023Z,33.47
2018-05-31T12:11:14.622Z,33.41
2018-05-31T12:12:20.391Z,33.35
2018-05-31T12:13:26.174Z,33.27
2018-05-31T12:14:32.727Z,33.28
2018-05-31T12:15:39.356Z,33.41
2018-05-31T12:16:45.159Z,33.55
2018-05-31T12:17:50.955Z,33.61
2018-05-31T12:18:58.243Z,33.63
2018-05-31T12:20:04.043Z,33.66
2018-05-31T12:21:09.625Z,33.67
2018-05-31T12:22:16.195Z,33.69
2018-05-31T12:23:22.746Z,33.72
2018-05-31T12:24:28.833Z,33.88
2018-05-31T12:25:34.697Z,34.00
2018-05-31T12:26:41.411Z,34.09
2018-05-31T12:27:47.964Z,34.16
2018-05-31T12:28:54.516Z,34.20
2018-05-31T12:30:00.715Z,34.21
2018-05-31T12:31:06.511Z,34.17
2018-05-31T12:32:12.300Z,33.99
2018-05-31T12:33:18.291Z,33.66
2018-05-31T12:34:24.059Z,33.60
2018-05-31T12:35:30.927Z,33.65
2018-05-31T12:36:37.472Z,33.69
2018-05-31T12:37:43.260Z,33.75
2018-05-31T12:38:49.271Z,33.73
2018-05-31T12:39:55.048Z,33.69
2018-05-31T12:41:00.830Z,33.61
2018-05-31T12:42:06.935Z,33.64
2018-05-31T12:43:12.745Z,33.59
2018-05-31T12:44:18.543Z,33.61
2018-05-31T12:45:24.321Z,33.61
2018-05-31T12:46:30.106Z,33.69
2018-05-31T12:47:35.878Z,33.76
2018-05-31T12:48:41.672Z,33.81
2018-05-31T12:49:48.236Z,33.90
2018-05-31T12:50:54.779Z,34.01
2018-05-31T12:52:00.544Z,34.11
2018-05-31T12:53:05.987Z,34.12
2018-05-31T12:54:11.831Z,34.19
2018-05-31T12:55:17.636Z,34.13
2018-05-31T12:56:24.201Z,34.19
2018-05-31T12:57:29.979Z,34.24
2018-05-31T12:58:35.763Z,34.22
2018-05-31T12:59:41.553Z,34.32
2018-05-31T13:00:48.118Z,34.36
2018-05-31T13:01:53.887Z,34.41
2018-05-31T13:02:59.690Z,34.39
2018-05-31T13:04:06.227Z,34.39
2018-05-31T13:05:12.025Z,34.47
2018-05-31T13:06:17.852Z,34.51
2018-05-31T13:07:23.631Z,34.51
2018-05-31T13:08:29.414Z,34.39
2018-05-31T13:09:36.007Z,34.37
2018-05-31T13:10:42.055Z,34.28
2018-05-31T13:11:48.128Z,34.18
2018-05-31T13:12:53.570Z,34.21
2018-05-31T13:13:59.340Z,34.03
2018-05-31T13:15:05.561Z,33.91
2018-05-31T13:16:11.344Z,33.85
2018-05-31T13:17:17.917Z,33.73
2018-05-31T13:18:23.704Z,33.62
2018-05-31T13:19:29.480Z,33.72
2018-05-31T13:20:36.071Z,33.76
2018-05-31T13:21:41.849Z,33.77
2018-05-31T13:22:47.659Z,33.78
2018-05-31T13:23:53.450Z,33.76
2018-05-31T13:24:59.223Z,33.80
2018-05-31T13:26:04.665Z,33.83
2018-05-31T13:27:10.445Z,33.87
2018-05-31T13:28:16.258Z,33.92
2018-05-31T13:29:22.916Z,33.98
2018-05-31T13:30:28.752Z,33.91
2018-05-31T13:31:34.534Z,33.86
2018-05-31T13:32:41.119Z,33.76
2018-05-31T13:33:46.976Z,33.68
2018-05-31T13:34:54.473Z,33.61
2018-05-31T13:36:01.800Z,33.58
2018-05-31T13:37:06.916Z,33.52
2018-05-31T13:38:12.695Z,33.50
2018-05-31T13:39:18.497Z,33.50
2018-05-31T13:40:24.287Z,33.51
2018-05-31T13:41:30.059Z,33.54
2018-05-31T13:42:35.843Z,33.55
2018-05-31T13:43:41.635Z,33.56
2018-05-31T13:44:48.209Z,33.65
2018-05-31T13:45:53.985Z,33.71
2018-05-31T13:46:59.768Z,33.73
2018-05-31T13:48:06.312Z,33.72
2018-05-31T13:49:12.096Z,33.71
2018-05-31T13:50:17.692Z,33.73
2018-05-31T13:51:24.237Z,33.68
2018-05-31T13:52:30.007Z,33.69
2018-05-31T13:53:36.547Z,33.69
2018-05-31T13:54:43.830Z,33.65
2018-05-31T13:55:49.619Z,33.63
2018-05-31T13:56:55.391Z,33.62
2018-05-31T13:58:01.168Z,33.59
2018-05-31T13:59:07.718Z,33.63
2018-05-31T14:00:13.169Z,33.68
2018-05-31T14:01:19.724Z,33.59
2018-05-31T14:02:26.261Z,33.54
2018-05-31T14:03:32.811Z,33.49
2018-05-31T14:04:38.573Z,33.49
2018-05-31T14:05:44.354Z,33.48
2018-05-31T14:06:50.407Z,33.44
2018-05-31T14:07:56.175Z,33.48
2018-05-31T14:09:01.993Z,33.54
2018-05-31T14:10:07.791Z,33.57
2018-05-31T14:11:13.615Z,33.63